Terminal Aerodrome Forecast
Issued by NWS

Home | Current Version | Previous Version | Text Only | Print | Product List | Glossary On
Versions: 1 2 3 4 5 6 7 8 9 10 11 12
513
FTUS42 TJSJ 231720
TAFNCM
TAF
TNCM 231720Z 2318/2418 13009KT P6SM FEW020
     FM232300 VRB05KT P6SM FEW020 SCT040
     FM241300 13010KT P6SM SCT020=

USA.gov is the U.S. government's official web portal to all federal, state and local government web resources and services.